METAR Data
IDs: Format: Raw Decoded Include TAF

Data at: 0621 UTC 03 Jul 2022

KBEH 030553Z AUTO 00000KT 10SM BKN120 18/13 A3009 RMK AO2 SLP186 T01830128 10239 20161 53007
KBEH 030453Z AUTO 00000KT 10SM CLR 17/12 A3008 RMK AO2 SLP185 T01720122 402610122
KBEH 030353Z AUTO 00000KT 10SM CLR 18/13 A3007 RMK AO2 SLP178 T01780128
KBEH 030253Z AUTO 08003KT 10SM CLR 17/13 A3007 RMK AO2 SLP179 T01720128 53005
KBEH 030153Z AUTO 00000KT 10SM CLR 19/12 A3006 RMK AO2 SLP175 T01890122
KBEH 030053Z AUTO 00000KT 10SM CLR 22/11 A3005 RMK AO2 SLP173 T02220111
KBEH 022353Z AUTO 32003KT 10SM CLR 23/11 A3005 RMK AO2 SLP174 T02330111 10261 20228 50000
KBEH 022253Z AUTO 32004KT 10SM CLR 24/11 A3005 RMK AO2 SLP175 T02390106
KBEH 022153Z AUTO 31005KT 10SM CLR 24/11 A3005 RMK AO2 SLP175 T02440106
KBEH 022053Z AUTO 31006KT 10SM CLR 25/11 A3005 RMK AO2 SLP175 T02500106 56007
KBEH 021953Z AUTO 30007KT 10SM CLR 25/10 A3006 RMK AO2 SLP177 T02500100
KBEH 021853Z AUTO 30005KT 10SM CLR 26/11 A3007 RMK AO2 SLP178 T02560106
KBEH 021753Z AUTO 28007KT 10SM CLR 24/11 A3007 RMK AO2 SLP182 T02440111 10250 20167 51005
KBEH 021653Z AUTO 32004KT 10SM CLR 24/13 A3007 RMK AO2 SLP182 T02390133
KBEH 021553Z AUTO 34005KT 10SM CLR 23/15 A3007 RMK AO2 SLP179 T02280150
KBEH 021453Z AUTO VRB06KT 10SM CLR 23/14 A3006 RMK AO2 SLP176 T02280144 53012
KBEH 021353Z AUTO VRB05KT 10SM CLR 22/14 A3004 RMK AO2 SLP168 T02220139
KBEH 021253Z AUTO 31006KT 10SM CLR 22/17 A3003 RMK AO2 SLP166 T02170167
KBEH 021153Z AUTO 00000KT 5SM BR CLR 17/16 A3002 RMK AO2 SLP164 T01670161 10167 20122 53007
KBEH 021130Z AUTO 00000KT 3SM BR SCT004 16/15 A3002 RMK AO2 T01560150
KBEH 021128Z AUTO 00000KT 1 1/2SM BR SCT004 16/15 A3002 RMK AO2 T01560150
KBEH 021126Z AUTO 00000KT 3/4SM BR VV003 15/14 A3002 RMK AO2 T01500144
KBEH 021118Z AUTO 00000KT 1/4SM FG VV004 15/14 A3002 RMK AO2 T01500139
KBEH 021053Z AUTO 00000KT 1/4SM FG OVC001 14/13 A3002 RMK AO2 SLP162 T01390128
KBEH 021044Z AUTO 00000KT 1/4SM FG OVC001 13/12 A3002 RMK AO2 T01330122
KBEH 021030Z AUTO 00000KT M1/4SM FG VV002 13/12 A3001 RMK AO2 T01280122
KBEH 021018Z AUTO 00000KT 1/4SM FG VV002 13/12 A3001 RMK AO2 VIS M1/4V5 T01280117
KBEH 021016Z AUTO 00000KT 3/4SM BR VV002 13/12 A3001 RMK AO2 VIS 1/4V5 T01280117
KBEH 021010Z AUTO 00000KT 1 3/4SM BR FEW002 13/12 A3001 RMK AO2 T01280117
KBEH 020953Z AUTO 00000KT 6SM BR CLR 13/12 A3000 RMK AO2 SLP159 T01330122
KBEH 020949Z AUTO 00000KT 1 3/4SM BR CLR 13/12 A3000 RMK AO2
KBEH 020944Z AUTO 00000KT 3/4SM BR VV002 13/12 A3000 RMK AO2 T01330122
KBEH 020930Z AUTO 00000KT 1SM BR VV002 13/12 A3000 RMK AO2 VIS 1/2V3 T01280117
KBEH 020925Z AUTO 00000KT 1 3/4SM BR FEW002 13/12 A3000 RMK AO2 VIS 3/4V3 T01280122
KBEH 020916Z AUTO 00000KT 1SM BR VV002 13/12 A3000 RMK AO2 T01280122
KBEH 020914Z AUTO 00000KT 1 1/2SM BR FEW002 13/12 A3000 RMK AO2 T01280122
KBEH 020901Z AUTO 00000KT 4SM BR FEW002 12/12 A3000 RMK AO2 T01220117
KBEH 020859Z AUTO 00000KT 1 1/4SM BR FEW002 12/12 A3000 RMK AO2 T01220117
KBEH 020853Z AUTO 08003KT 1/2SM FG VV002 12/12 A3000 RMK AO2 VIS 1/4V2 1/2 SLP158 T01220117 53003
KBEH 020850Z AUTO 00000KT 1/2SM FG VV002 13/12 A3000 RMK AO2
KBEH 020841Z AUTO 00000KT 3/4SM BR CLR 13/12 A3000 RMK AO2 T01280122
KBEH 020838Z AUTO 00000KT 1 3/4SM BR CLR 13/12 A3000 RMK AO2 T01280122
KBEH 020823Z AUTO 00000KT 3SM BR CLR 13/12 A2999 RMK AO2 T01330122
KBEH 020813Z AUTO 00000KT 1 3/4SM BR CLR 13/12 A2999 RMK AO2 VIS 1V5 T01280122
KBEH 020806Z AUTO 00000KT 6SM BR CLR 13/13 A3000 RMK AO2 T01330128
KBEH 020753Z AUTO 00000KT 2 1/2SM BR CLR 13/12 A2999 RMK AO2 SLP156 T01330122
KBEH 020746Z AUTO 00000KT 3SM BR CLR 13/12 A3000 RMK AO2 T01330122
KBEH 020737Z AUTO 00000KT 1 3/4SM BR CLR 13/12 A3000 RMK AO2 VIS 3/4V5 T01330122
KBEH 020722Z AUTO 00000KT 3SM BR CLR 14/13 A3000 RMK AO2 T01390128
KBEH 020715Z AUTO 00000KT 1 3/4SM BR CLR 13/12 A3000 RMK AO2 T01330122
KBEH 020712Z AUTO 00000KT 3SM BR CLR 13/12 A3000 RMK AO2 T01330122
KBEH 020705Z AUTO 00000KT 2SM BR CLR 14/13 A3000 RMK AO2 T01390128
KBEH 020656Z AUTO 00000KT 1 1/4SM BR CLR 14/12 A2999 RMK AO2 T01390122
KBEH 020653Z AUTO 00000KT 2 1/2SM BR CLR 14/13 A2999 RMK AO2 SLP155 T01390128
KBEH 020629Z AUTO 00000KT 9SM CLR 14/13 A2999 RMK AO2 T01440128
KBEH 020621Z AUTO 00000KT 1 1/2SM BR CLR 14/13 A2999 RMK AO2 T01440128
KBEH 020613Z AUTO 00000KT 3/4SM BR CLR 14/13 A2999 RMK AO2 VIS 1/2V5 T01440128
KBEH 020608Z AUTO 00000KT 1 3/4SM BR CLR 14/13 A2999 RMK AO2 T01390128
KBEH 020603Z AUTO 00000KT 3SM BR CLR 14/13 A2999 RMK AO2 T01390133
KBEH 020553Z AUTO 00000KT 1 1/2SM BR CLR 14/13 A2999 RMK AO2 VIS 3/4V5 SLP153 T01390128 10217 20139 50001
KBEH 020453Z AUTO 00000KT 9SM CLR 15/13 A3000 RMK AO2 SLP156 T01500133 402670150
KBEH 020353Z AUTO 00000KT 10SM CLR 16/14 A2999 RMK AO2 SLP153 T01610139
KBEH 020253Z AUTO 00000KT 10SM CLR 17/14 A2999 RMK AO2 SLP151 T01720144 53007
KBEH 020153Z AUTO 00000KT 10SM CLR 18/14 A2996 RMK AO2 SLP143 T01830144
KBEH 020053Z AUTO 00000KT 10SM CLR 21/14 A2996 RMK AO2 SLP142 T02110139
KBEH 012353Z AUTO 00000KT 10SM FEW038 22/14 A2997 RMK AO2 SLP143 T02170139 10228 20206 55002
KBEH 012253Z AUTO 00000KT 10SM CLR 22/14 A2994 RMK AO2 SLP135 T02170144
KBEH 012153Z AUTO VRB03KT 10SM CLR 21/15 A2997 RMK AO2 SLP145 T02060150
KBEH 012053Z AUTO 32004KT 10SM FEW045 21/16 A2997 RMK AO2 SLP145 T02060156 50003
KBEH 011953Z AUTO 27007KT 10SM SCT041 21/16 A2999 RMK AO2 LTG DSNT SE AND S SLP152 T02110156
KBEH 011853Z AUTO 31004KT 10SM SCT055 SCT095 22/16 A2997 RMK AO2 SLP142 T02220156